Time;durP1;ratioP1;P1;durP2;ratioP2;P2;SDS_P1;SDS_P2;PMS_P1;PMS_P2;Temp;Humidity;BMP_temperature;BMP_pressure;BME280_temperature;BME280_humidity;BME280_pressure;Samples;Min_cycle;Max_cycle;Signal;HPM_P1;HPM_P2
2022/05/04 00:01:32;;;;;;;8.20;2.67;;;8.80;99.90;;;;;;4955389;28;20074;-89
2022/05/04 00:03:58;;;;;;;10.45;3.70;;;8.80;99.90;;;;;;4973715;29;20070;-89
2022/05/04 00:06:24;;;;;;;9.23;3.53;;;8.80;99.90;;;;;;4949849;29;20046;-89
2022/05/04 00:08:50;;;;;;;10.32;3.63;;;8.90;99.90;;;;;;4955628;29;20057;-89
2022/05/04 00:11:15;;;;;;;11.35;3.50;;;8.80;99.90;;;;;;4930893;29;20199;-90
2022/05/04 00:13:41;;;;;;;9.20;3.35;;;8.80;99.90;;;;;;4945085;29;20047;-88
2022/05/04 00:16:07;;;;;;;12.00;3.05;;;8.80;99.90;;;;;;4922690;29;20496;-88
2022/05/04 00:18:32;;;;;;;12.82;3.45;;;8.70;99.90;;;;;;4954681;29;20412;-88
2022/05/04 00:20:58;;;;;;;15.98;4.47;;;8.80;99.90;;;;;;4936851;29;20219;-89
2022/05/04 00:23:25;;;;;;;10.98;4.65;;;8.70;99.90;;;;;;4940867;29;20035;-90
2022/05/04 00:25:51;;;;;;;9.55;3.90;;;8.70;99.90;;;;;;4947206;29;20051;-89
2022/05/04 00:28:17;;;;;;;8.88;3.60;;;8.70;99.90;;;;;;4935555;29;20043;-88
2022/05/04 00:30:42;;;;;;;13.07;4.10;;;8.70;99.90;;;;;;4935897;29;20039;-89
2022/05/04 00:33:08;;;;;;;10.80;3.53;;;8.70;99.90;;;;;;4920289;29;20160;-90
2022/05/04 00:35:34;;;;;;;10.60;4.13;;;8.80;99.90;;;;;;4936063;29;20043;-89
2022/05/04 00:38:00;;;;;;;10.95;2.88;;;8.80;99.90;;;;;;4934154;29;20043;-89
2022/05/04 00:40:26;;;;;;;11.93;4.10;;;8.70;99.90;;;;;;4934982;29;20062;-88
2022/05/04 00:42:52;;;;;;;11.55;4.10;;;8.70;99.90;;;;;;4936287;29;20048;-89
2022/05/04 00:45:17;;;;;;;11.98;4.95;;;8.70;99.90;;;;;;4920205;29;20054;-89
2022/05/04 00:47:43;;;;;;;9.52;3.90;;;8.70;99.90;;;;;;4934156;29;20043;-89
2022/05/04 00:50:09;;;;;;;12.18;4.88;;;8.70;99.90;;;;;;4949213;29;20035;-90
2022/05/04 00:52:37;;;;;;;12.07;3.72;;;8.60;99.90;;;;;;4935498;29;20039;-90
2022/05/04 00:55:05;;;;;;;11.18;4.40;;;8.60;99.90;;;;;;4951279;29;20118;-89
2022/05/04 01:00:18;;;;;;;10.27;3.50;;;8.60;99.90;;;;;;4916930;29;20573;-89
2022/05/04 01:02:43;;;;;;;11.05;3.47;;;8.60;99.90;;;;;;4916589;29;20052;-89
2022/05/04 01:05:10;;;;;;;10.60;4.10;;;8.60;99.90;;;;;;4925805;29;20051;-90
2022/05/04 01:07:38;;;;;;;10.85;4.13;;;8.60;99.90;;;;;;4915620;29;20047;-89
2022/05/04 01:10:04;;;;;;;13.00;4.43;;;8.60;99.90;;;;;;4915903;29;20078;-91
2022/05/04 01:12:31;;;;;;;10.05;3.95;;;8.60;99.90;;;;;;4935161;29;20571;-91
2022/05/04 01:14:57;;;;;;;11.32;3.83;;;8.60;99.90;;;;;;4945156;29;20393;-90
2022/05/04 01:17:23;;;;;;;11.90;4.00;;;8.60;99.90;;;;;;4920440;29;20076;-89
2022/05/04 01:19:48;;;;;;;9.82;3.60;;;8.60;99.90;;;;;;4951565;29;20057;-89
2022/05/04 01:22:14;;;;;;;13.25;4.00;;;8.50;99.90;;;;;;4935193;29;20126;-89
2022/05/04 01:24:39;;;;;;;11.57;4.20;;;8.50;99.90;;;;;;4919304;29;20054;-90
2022/05/04 01:27:11;;;;;;;10.07;4.10;;;8.50;99.90;;;;;;4920096;29;20485;-89
2022/05/04 01:29:36;;;;;;;15.68;3.13;;;8.50;99.90;;;;;;4935223;29;20047;-89
2022/05/04 01:32:02;;;;;;;10.27;3.90;;;8.50;99.90;;;;;;4952995;29;20388;-90
2022/05/04 01:34:28;;;;;;;10.63;4.10;;;8.50;99.90;;;;;;4914649;29;20057;-90
2022/05/04 01:36:53;;;;;;;10.55;2.97;;;8.50;99.90;;;;;;4921785;29;20049;-90
2022/05/04 01:39:19;;;;;;;12.57;4.40;;;8.40;99.90;;;;;;4913771;29;20260;-89
2022/05/04 01:42:03;;;;;;;12.52;4.50;;;8.40;99.90;;;;;;4934422;29;20428;-90
2022/05/04 01:44:33;;;;;;;10.52;3.17;;;8.40;99.90;;;;;;4951793;29;20043;-89
2022/05/04 01:46:59;;;;;;;11.88;4.85;;;8.40;99.90;;;;;;4934603;29;20444;-90
2022/05/04 01:49:24;;;;;;;12.50;4.50;;;8.40;99.90;;;;;;4945119;29;20042;-88
2022/05/04 01:51:50;;;;;;;11.68;4.70;;;8.40;99.90;;;;;;4945143;29;20499;-88
2022/05/04 01:54:16;;;;;;;14.02;4.60;;;8.50;99.90;;;;;;4911077;29;20130;-89
2022/05/04 01:56:42;;;;;;;11.40;4.45;;;8.50;99.90;;;;;;4949230;29;20046;-91
2022/05/04 01:59:07;;;;;;;11.63;4.80;;;8.40;99.90;;;;;;4952520;29;20433;-89
2022/05/04 02:01:33;;;;;;;13.35;4.25;;;8.40;99.90;;;;;;4919002;29;20098;-90
2022/05/04 02:03:59;;;;;;;10.35;4.13;;;8.40;99.90;;;;;;4950713;29;20071;-89
2022/05/04 02:06:25;;;;;;;13.40;4.93;;;8.40;99.90;;;;;;4917451;29;20036;-90
2022/05/04 02:08:51;;;;;;;11.10;4.03;;;8.40;99.90;;;;;;4918870;29;20051;-90
2022/05/04 02:11:17;;;;;;;10.93;3.45;;;8.40;99.90;;;;;;4952079;29;20130;-90
2022/05/04 02:13:43;;;;;;;13.07;4.68;;;8.40;99.90;;;;;;4952675;29;20178;-90
2022/05/04 02:16:09;;;;;;;9.98;3.03;;;8.40;99.90;;;;;;4937626;29;20039;-89
2022/05/04 02:18:34;;;;;;;12.68;4.50;;;8.30;99.90;;;;;;4927216;29;20126;-90
2022/05/04 02:21:00;;;;;;;11.88;4.55;;;8.40;99.90;;;;;;4951035;29;20047;-90
2022/05/04 02:23:26;;;;;;;11.82;3.45;;;8.40;99.90;;;;;;4933575;29;20039;-88
2022/05/04 02:25:51;;;;;;;11.27;4.50;;;8.30;99.90;;;;;;4934495;29;20106;-90
2022/05/04 02:28:17;;;;;;;12.43;3.85;;;8.30;99.90;;;;;;4915802;29;20480;-90
2022/05/04 02:30:47;;;;;;;10.30;4.18;;;8.30;99.90;;;;;;4918312;29;20428;-90
2022/05/04 02:33:14;;;;;;;10.85;3.78;;;8.30;99.90;;;;;;4951339;29;20051;-91
2022/05/04 02:38:24;;;;;;;11.38;3.35;;;8.30;99.90;;;;;;4942611;29;20047;-90
2022/05/04 02:40:49;;;;;;;11.40;4.03;;;8.20;99.90;;;;;;4933350;29;20131;-89
2022/05/04 02:43:15;;;;;;;11.27;3.47;;;8.30;99.90;;;;;;4909353;29;20423;-89
2022/05/04 02:45:40;;;;;;;11.27;3.83;;;8.30;99.90;;;;;;4950978;29;20039;-88
2022/05/04 02:48:09;;;;;;;10.80;3.83;;;8.20;99.90;;;;;;4907450;29;20052;-89
2022/05/04 02:50:36;;;;;;;12.38;4.47;;;8.30;99.90;;;;;;4939219;29;20039;-89
2022/05/04 02:53:04;;;;;;;11.07;3.97;;;8.30;99.90;;;;;;4940515;29;20043;-88
2022/05/04 02:55:30;;;;;;;12.85;3.17;;;8.30;99.90;;;;;;4951517;29;20183;-90
2022/05/04 02:57:55;;;;;;;10.77;3.17;;;8.20;99.90;;;;;;4930957;29;20050;-89
2022/05/04 03:00:21;;;;;;;11.88;3.38;;;8.20;99.90;;;;;;4917470;29;20059;-89
2022/05/04 03:02:47;;;;;;;10.15;4.20;;;8.20;99.90;;;;;;4933101;29;20472;-90
2022/05/04 03:05:14;;;;;;;12.90;3.92;;;8.20;99.90;;;;;;4932222;29;20074;-90
2022/05/04 03:07:40;;;;;;;11.60;4.05;;;8.20;99.90;;;;;;4951044;29;20047;-90
2022/05/04 03:10:06;;;;;;;10.73;4.38;;;8.20;99.90;;;;;;4917830;29;20390;-89
2022/05/04 03:12:32;;;;;;;11.95;4.38;;;8.30;99.90;;;;;;4933697;29;20047;-89
2022/05/04 03:14:58;;;;;;;12.02;3.72;;;8.30;99.90;;;;;;4931372;29;20066;-89
2022/05/04 03:17:23;;;;;;;10.95;3.10;;;8.20;99.90;;;;;;4915255;29;20039;-89
2022/05/04 03:19:49;;;;;;;12.52;3.90;;;8.20;99.90;;;;;;4914393;29;20665;-89
2022/05/04 03:22:15;;;;;;;8.18;3.38;;;8.20;99.90;;;;;;4898897;29;20051;-89
2022/05/04 03:24:41;;;;;;;12.23;4.20;;;8.20;99.90;;;;;;4947047;29;20081;-90
2022/05/04 03:27:07;;;;;;;10.43;3.28;;;8.20;99.90;;;;;;4933677;29;20043;-89
2022/05/04 03:29:33;;;;;;;10.50;3.22;;;8.20;99.90;;;;;;4928219;29;20048;-89
2022/05/04 03:31:59;;;;;;;9.80;2.78;;;8.10;99.90;;;;;;4917476;29;20039;-89
2022/05/04 03:34:24;;;;;;;12.23;4.00;;;8.10;99.90;;;;;;4934010;29;20127;-90
2022/05/04 03:36:50;;;;;;;9.70;4.00;;;8.20;99.90;;;;;;4935417;29;20552;-89
2022/05/04 03:39:15;;;;;;;11.70;4.03;;;8.20;99.90;;;;;;4906857;29;20143;-89
2022/05/04 03:41:41;;;;;;;9.65;3.65;;;8.20;99.90;;;;;;4923815;29;20091;-89
2022/05/04 03:44:06;;;;;;;9.60;3.15;;;8.20;99.90;;;;;;4940784;29;20515;-90
2022/05/04 03:46:46;;;;;;;9.70;3.95;;;8.20;99.90;;;;;;4954454;29;20076;-89
2022/05/04 03:49:13;;;;;;;11.02;3.40;;;8.20;99.90;;;;;;4954119;29;20062;-89
2022/05/04 03:51:40;;;;;;;9.85;3.58;;;8.10;99.90;;;;;;4936622;29;20059;-88
2022/05/04 03:54:06;;;;;;;12.80;3.72;;;8.10;99.90;;;;;;4954364;29;20040;-89
2022/05/04 03:56:32;;;;;;;10.23;4.38;;;8.10;99.90;;;;;;4935288;29;20051;-90
2022/05/04 03:58:57;;;;;;;10.23;3.80;;;8.20;99.90;;;;;;4953683;29;20031;-89
2022/05/04 04:01:23;;;;;;;10.93;3.60;;;8.10;99.90;;;;;;4954281;29;20492;-89
2022/05/04 04:03:48;;;;;;;11.13;4.30;;;8.10;99.90;;;;;;4910240;29;20492;-88
2022/05/04 04:06:15;;;;;;;9.40;3.28;;;8.20;99.90;;;;;;4930303;29;20035;-89
2022/05/04 04:08:41;;;;;;;8.85;2.95;;;8.10;99.90;;;;;;4938626;29;20407;-89
2022/05/04 04:11:06;;;;;;;10.70;4.05;;;8.10;99.90;;;;;;4922801;29;20053;-89
2022/05/04 04:13:32;;;;;;;9.80;3.53;;;8.10;99.90;;;;;;4942692;29;20040;-87
2022/05/04 04:15:58;;;;;;;12.02;3.88;;;8.20;99.90;;;;;;4943911;29;20043;-89
2022/05/04 04:18:25;;;;;;;10.57;4.15;;;8.20;99.90;;;;;;4957178;29;20047;-89
2022/05/04 04:23:36;;;;;;;12.55;4.03;;;8.20;99.90;;;;;;4935664;29;20047;-89
2022/05/04 04:26:03;;;;;;;11.77;4.10;;;8.20;99.90;;;;;;4932993;29;20047;-89
2022/05/04 04:28:29;;;;;;;13.40;3.03;;;8.20;99.90;;;;;;4920017;29;20142;-88
2022/05/04 04:30:55;;;;;;;11.68;5.10;;;8.20;99.90;;;;;;4952437;29;20047;-89
2022/05/04 04:33:26;;;;;;;11.05;4.30;;;8.20;99.90;;;;;;4954065;29;20042;-89
2022/05/04 04:35:58;;;;;;;6.97;2.33;;;8.20;99.90;;;;;;4920568;29;20448;-89
2022/05/04 04:38:25;;;;;;;9.80;3.42;;;8.20;99.90;;;;;;4931916;29;20432;-88
2022/05/04 04:40:51;;;;;;;11.48;4.85;;;8.20;99.90;;;;;;4932232;29;20058;-91
2022/05/04 04:43:17;;;;;;;7.90;3.17;;;8.20;99.90;;;;;;4935122;29;20031;-90
2022/05/04 04:45:49;;;;;;;9.25;3.20;;;8.20;99.90;;;;;;4936186;29;20054;-91
2022/05/04 04:48:16;;;;;;;13.43;3.90;;;8.20;99.90;;;;;;4953148;29;20252;-91
2022/05/04 04:50:45;;;;;;;13.13;4.65;;;8.20;99.90;;;;;;4946123;29;20471;-91
2022/05/04 04:53:11;;;;;;;12.57;5.22;;;8.20;99.90;;;;;;4935492;29;20090;-91
2022/05/04 04:55:37;;;;;;;12.15;4.55;;;8.30;99.90;;;;;;4953486;29;20043;-91
2022/05/04 04:58:03;;;;;;;14.25;4.80;;;8.40;99.90;;;;;;4940631;29;20043;-90
2022/05/04 05:00:28;;;;;;;11.20;4.32;;;8.40;99.90;;;;;;4932587;29;20036;-90
2022/05/04 05:02:54;;;;;;;11.65;4.60;;;8.40;99.90;;;;;;4955385;29;20039;-92
2022/05/04 05:05:19;;;;;;;12.57;3.78;;;8.40;99.90;;;;;;4956866;29;20051;-95
2022/05/04 05:07:45;;;;;;;12.15;4.18;;;8.40;99.90;;;;;;4954432;29;20122;-95
2022/05/04 05:10:10;;;;;;;12.85;4.63;;;8.40;99.90;;;;;;4950264;29;20100;-95
2022/05/04 05:12:36;;;;;;;11.23;4.68;;;8.40;99.90;;;;;;4919828;29;20031;-96
2022/05/04 05:17:47;;;;;;;13.70;3.47;;;8.50;99.90;;;;;;4931067;29;20120;-95
2022/05/04 05:20:12;;;;;;;10.45;3.47;;;8.40;99.90;;;;;;4940898;29;20043;-95
2022/05/04 05:22:38;;;;;;;10.38;4.05;;;8.40;99.90;;;;;;4940075;29;20051;-96
2022/05/04 05:25:04;;;;;;;9.73;4.20;;;8.50;99.90;;;;;;4947353;29;20098;-95
2022/05/04 05:27:31;;;;;;;12.38;3.58;;;8.50;99.90;;;;;;4947073;29;20047;-94
2022/05/04 05:29:56;;;;;;;11.10;4.20;;;8.50;99.90;;;;;;4951357;29;20027;-94
2022/05/04 05:32:22;;;;;;;11.25;4.10;;;8.50;99.90;;;;;;4959460;29;20061;-94
2022/05/04 05:34:47;;;;;;;12.80;4.30;;;8.60;99.90;;;;;;4950276;29;20043;-92
2022/05/04 05:37:13;;;;;;;11.82;4.68;;;8.60;99.90;;;;;;4943244;28;20055;-89
2022/05/04 05:39:42;;;;;;;8.85;3.75;;;8.60;99.90;;;;;;4949997;29;20111;-90
2022/05/04 05:42:08;;;;;;;10.40;3.78;;;8.70;99.90;;;;;;4945310;29;20043;-95
2022/05/04 05:44:34;;;;;;;11.63;3.90;;;8.80;99.90;;;;;;4946713;29;20045;-95
2022/05/04 05:47:01;;;;;;;12.27;4.05;;;8.80;99.90;;;;;;4945377;29;20126;-94
2022/05/04 05:49:27;;;;;;;10.90;4.95;;;8.80;99.90;;;;;;4944927;29;20062;-94
2022/05/04 05:51:53;;;;;;;14.35;4.35;;;8.90;99.90;;;;;;4938710;29;20043;-92
2022/05/04 05:54:18;;;;;;;12.27;4.60;;;8.90;99.90;;;;;;4939203;29;20055;-95
2022/05/04 05:56:44;;;;;;;10.57;3.83;;;9.00;99.90;;;;;;4948010;29;20039;-94
2022/05/04 05:59:10;;;;;;;14.35;4.25;;;9.00;99.90;;;;;;4912051;29;20040;-89
2022/05/04 06:01:40;;;;;;;12.80;4.43;;;9.10;99.90;;;;;;4946949;29;20050;-95
2022/05/04 06:04:05;;;;;;;12.50;4.30;;;9.10;99.90;;;;;;4945621;29;20043;-92
2022/05/04 06:06:31;;;;;;;12.60;4.80;;;9.10;99.90;;;;;;4927068;29;20142;-95
2022/05/04 06:08:57;;;;;;;12.57;4.57;;;9.10;99.90;;;;;;4937461;29;20058;-91
2022/05/04 06:11:22;;;;;;;11.50;4.53;;;9.10;99.90;;;;;;4945475;29;20051;-90
2022/05/04 06:13:52;;;;;;;10.98;4.43;;;9.10;99.90;;;;;;4947195;29;20468;-96
2022/05/04 06:18:50;;;;;;;10.77;3.60;;;9.20;99.90;;;;;;5128707;23;19907;-95
2022/05/04 06:21:16;;;;;;;11.10;3.90;;;9.20;99.90;;;;;;5186256;23;20354;-95
2022/05/04 06:23:41;;;;;;;9.63;3.78;;;9.30;99.90;;;;;;4915734;29;20046;-91
2022/05/04 06:26:07;;;;;;;14.00;4.30;;;9.30;99.90;;;;;;4930382;29;20039;-88
2022/05/04 06:28:33;;;;;;;10.48;3.88;;;9.30;99.90;;;;;;4935958;29;20396;-93
2022/05/04 06:34:10;;;;;;;8.50;3.55;;;9.30;99.90;;;;;;5337812;23;21367;31
2022/05/04 06:42:04;;;;;;;9.27;3.35;;;9.50;99.90;;;;;;4950501;29;20039;-96
2022/05/04 06:44:30;;;;;;;11.10;4.07;;;9.50;99.90;;;;;;5043908;23;20416;-95
2022/05/04 06:46:56;;;;;;;11.68;3.80;;;9.50;99.90;;;;;;4974637;28;20056;-92
2022/05/04 06:49:21;;;;;;;11.60;3.40;;;9.60;99.90;;;;;;4944374;29;20127;-96
2022/05/04 06:51:48;;;;;;;8.75;3.20;;;9.60;99.90;;;;;;4937892;29;20127;-92
2022/05/04 06:54:13;;;;;;;11.60;3.17;;;9.60;99.90;;;;;;4930046;29;20048;-91
2022/05/04 06:56:39;;;;;;;9.32;2.75;;;9.60;99.90;;;;;;4938178;29;20410;-93
2022/05/04 06:59:05;;;;;;;8.73;3.00;;;9.50;99.90;;;;;;4935913;29;20047;-91
2022/05/04 07:01:31;;;;;;;10.98;3.70;;;9.60;99.90;;;;;;4931650;29;20059;-91
2022/05/04 07:03:56;;;;;;;12.10;3.53;;;9.70;99.90;;;;;;4929776;29;20059;-90
2022/05/04 07:06:22;;;;;;;10.95;3.40;;;9.70;99.90;;;;;;4930574;29;20094;-91
2022/05/04 07:08:47;;;;;;;9.68;3.17;;;9.80;99.90;;;;;;4930852;29;20139;-93
2022/05/04 07:11:13;;;;;;;10.20;3.60;;;9.80;99.90;;;;;;4931865;29;20559;-90
2022/05/04 07:13:41;;;;;;;9.73;3.17;;;9.80;99.90;;;;;;4931678;29;20052;-91
2022/05/04 07:16:08;;;;;;;10.18;3.88;;;9.90;99.90;;;;;;4947410;29;20548;-91
2022/05/04 07:18:33;;;;;;;10.27;3.40;;;9.90;99.90;;;;;;4930921;29;20058;-91
2022/05/04 07:20:59;;;;;;;10.68;3.53;;;9.90;99.90;;;;;;4914555;29;20401;-92
2022/05/04 07:23:24;;;;;;;9.88;3.38;;;10.00;99.90;;;;;;4930895;29;20181;-90
2022/05/04 07:25:50;;;;;;;10.25;3.13;;;10.00;99.90;;;;;;4930963;29;20051;-92
2022/05/04 07:28:15;;;;;;;10.77;3.35;;;10.00;99.90;;;;;;4932156;29;20386;-92
2022/05/04 07:30:41;;;;;;;9.85;4.03;;;10.00;99.90;;;;;;4932874;29;20488;-94
2022/05/04 07:33:07;;;;;;;9.82;3.65;;;9.90;99.90;;;;;;4916808;29;20024;-91
2022/05/04 07:35:32;;;;;;;11.60;6.20;;;10.00;99.90;;;;;;4933520;29;20054;-92
2022/05/04 07:37:58;;;;;;;13.02;5.63;;;10.10;99.90;;;;;;4932868;29;20083;-93
2022/05/04 07:43:07;;;;;;;10.05;3.88;;;10.30;99.90;;;;;;4932290;29;20052;-93
2022/05/04 07:45:33;;;;;;;9.57;2.95;;;10.40;99.90;;;;;;4964045;28;20393;-90
2022/05/04 07:47:59;;;;;;;9.93;3.00;;;10.40;99.90;;;;;;4932564;28;20054;-91
2022/05/04 07:50:25;;;;;;;9.23;3.55;;;10.30;99.90;;;;;;4933565;29;20247;-92
2022/05/04 07:52:51;;;;;;;11.65;4.40;;;10.30;99.90;;;;;;4943507;29;20078;-91
2022/05/04 07:55:17;;;;;;;9.93;3.80;;;10.30;99.90;;;;;;4934973;29;20048;-91
2022/05/04 07:57:47;;;;;;;12.88;4.13;;;10.50;99.90;;;;;;4931206;29;20054;-93
2022/05/04 08:05:42;;;;;;;10.75;3.60;;;10.60;99.90;;;;;;4931664;29;20481;-91
2022/05/04 08:08:08;;;;;;;9.30;3.45;;;10.60;99.90;;;;;;4932439;29;20063;-92
2022/05/04 08:10:34;;;;;;;9.93;4.13;;;10.60;99.90;;;;;;4932152;29;20075;-91
2022/05/04 08:13:00;;;;;;;8.93;3.40;;;10.70;99.90;;;;;;4937830;29;20444;-93
2022/05/04 08:15:26;;;;;;;9.75;3.80;;;10.80;99.90;;;;;;4974161;28;20091;-92
2022/05/04 08:17:52;;;;;;;8.15;3.72;;;10.70;99.90;;;;;;4945971;29;20515;-89
2022/05/04 08:20:17;;;;;;;10.23;3.50;;;10.70;99.90;;;;;;4933725;29;20066;-91
2022/05/04 08:22:43;;;;;;;9.50;3.97;;;10.60;99.90;;;;;;4947743;29;20067;-90
2022/05/04 08:25:09;;;;;;;11.30;3.50;;;10.60;99.90;;;;;;4935049;29;20059;-90
2022/05/04 08:27:35;;;;;;;8.60;3.20;;;10.60;99.90;;;;;;4953040;29;20048;-91
2022/05/04 08:30:01;;;;;;;8.30;3.17;;;10.70;99.90;;;;;;4936412;29;20102;-91
2022/05/04 08:32:30;;;;;;;10.07;3.67;;;10.70;99.90;;;;;;4934501;29;20122;-91
2022/05/04 08:34:57;;;;;;;8.75;3.08;;;10.90;99.90;;;;;;4935838;29;20183;-91
2022/05/04 08:37:22;;;;;;;10.73;3.58;;;11.00;99.90;;;;;;4967048;28;20497;-91
2022/05/04 08:39:48;;;;;;;8.55;3.33;;;11.10;99.90;;;;;;4935473;29;20122;-91
2022/05/04 08:42:14;;;;;;;10.35;3.50;;;11.30;99.90;;;;;;4936887;29;20103;-92
2022/05/04 08:44:42;;;;;;;10.15;4.05;;;11.30;99.90;;;;;;4937897;29;20489;-93
2022/05/04 08:47:12;;;;;;;11.13;4.38;;;11.30;99.90;;;;;;4952268;28;20095;-93
2022/05/04 08:49:40;;;;;;;12.38;4.38;;;11.30;99.90;;;;;;4936478;28;20094;-92
2022/05/04 08:52:06;;;;;;;10.68;3.60;;;11.30;99.90;;;;;;4918910;29;20031;-91
2022/05/04 08:54:32;;;;;;;10.00;3.60;;;11.10;99.90;;;;;;4934817;29;20142;-96
2022/05/04 08:56:59;;;;;;;8.77;3.30;;;11.20;99.90;;;;;;4918174;29;20142;-92
2022/05/04 08:59:25;;;;;;;9.50;3.15;;;11.20;99.90;;;;;;4939164;29;20146;-92
2022/05/04 09:01:51;;;;;;;9.25;3.35;;;11.20;99.90;;;;;;4935966;29;20049;-91
2022/05/04 09:04:17;;;;;;;10.43;4.00;;;11.30;99.90;;;;;;4937391;29;20031;-90
2022/05/04 09:06:45;;;;;;;9.40;3.88;;;11.40;99.90;;;;;;4946557;29;20476;-90
2022/05/04 09:09:13;;;;;;;116.10;11.60;;;11.40;99.70;;;;;;4944254;28;20508;-93
2022/05/04 09:11:40;;;;;;;9.40;3.38;;;11.50;99.80;;;;;;4948234;29;20533;-92
2022/05/04 09:14:19;;;;;;;9.98;3.70;;;11.50;99.60;;;;;;4953090;28;20252;-90
2022/05/04 09:16:46;;;;;;;11.75;3.90;;;11.50;99.30;;;;;;4957691;28;20109;-89
2022/05/04 09:19:14;;;;;;;9.57;3.15;;;11.60;99.60;;;;;;4939138;28;20081;-92
2022/05/04 09:21:40;;;;;;;11.48;3.58;;;11.60;99.30;;;;;;4929519;29;20046;-87
2022/05/04 09:24:07;;;;;;;10.35;3.58;;;11.60;98.80;;;;;;4929722;29;20043;-89
2022/05/04 09:26:39;;;;;;;14.68;6.95;;;11.70;99.20;;;;;;4960992;28;20050;-92
2022/05/04 09:29:06;;;;;;;11.05;3.55;;;11.80;98.90;;;;;;4932292;29;20131;-90
2022/05/04 09:31:32;;;;;;;10.95;3.53;;;11.80;98.90;;;;;;4934705;29;20556;-91
2022/05/04 09:34:02;;;;;;;9.77;3.25;;;11.90;98.80;;;;;;4934402;28;20039;-92
2022/05/04 09:36:37;;;;;;;11.65;3.70;;;12.00;98.60;;;;;;4936317;29;20098;-91
2022/05/04 09:45:13;;;;;;;10.25;3.72;;;12.10;96.90;;;;;;4861990;29;20129;-93
2022/05/04 09:47:48;;;;;;;9.40;3.45;;;12.00;97.70;;;;;;4863118;29;20053;-92
2022/05/04 09:50:15;;;;;;;9.57;3.40;;;12.00;97.00;;;;;;4850566;29;20083;-94
2022/05/04 09:52:49;;;;;;;9.25;3.20;;;11.90;97.70;;;;;;4870446;29;20060;-92
2022/05/04 09:55:16;;;;;;;9.65;3.00;;;11.90;98.50;;;;;;4844455;29;20053;-92
2022/05/04 09:57:43;;;;;;;9.52;4.03;;;12.00;97.80;;;;;;4858434;29;20113;-94
2022/05/04 10:00:09;;;;;;;10.45;3.20;;;12.00;97.60;;;;;;4857581;29;20057;-95
2022/05/04 10:02:37;;;;;;;10.55;3.25;;;12.10;97.60;;;;;;4839555;29;20057;-93
2022/05/04 10:05:03;;;;;;;10.40;3.50;;;12.10;97.00;;;;;;4852328;29;20081;-91
2022/05/04 10:07:31;;;;;;;9.52;3.72;;;12.10;96.70;;;;;;4837361;29;20052;-89
2022/05/04 10:09:56;;;;;;;9.45;3.40;;;12.00;96.60;;;;;;4837040;29;21115;-89
2022/05/04 10:12:23;;;;;;;10.98;3.38;;;11.90;96.60;;;;;;4838321;29;20049;-91
2022/05/04 10:14:50;;;;;;;11.65;3.40;;;11.80;97.40;;;;;;4861483;29;20057;-94
2022/05/04 10:17:21;;;;;;;8.77;3.30;;;11.90;98.10;;;;;;4925054;29;20436;-93
2022/05/04 10:20:11;;;;;;;7.85;3.30;;;12.00;98.60;;;;;;4938138;29;20035;-95
2022/05/04 10:22:46;;;;;;;9.07;3.42;;;12.00;98.20;;;;;;4951159;29;20074;-96
2022/05/04 10:25:13;;;;;;;12.52;3.45;;;12.10;98.30;;;;;;4946598;29;20095;-93
2022/05/04 10:27:46;;;;;;;10.68;3.20;;;12.20;98.30;;;;;;4926424;29;20397;-93
2022/05/04 10:30:30;;;;;;;9.48;3.30;;;12.30;96.90;;;;;;4916669;29;20149;-94
2022/05/04 10:33:08;;;;;;;9.43;3.50;;;12.40;97.30;;;;;;4935146;29;20094;-92
2022/05/04 10:35:45;;;;;;;9.50;3.50;;;12.50;97.10;;;;;;4921534;29;20515;-93
2022/05/04 10:38:14;;;;;;;8.07;3.35;;;12.60;96.20;;;;;;4946664;28;20051;-92
2022/05/04 10:40:47;;;;;;;11.02;3.63;;;12.50;95.70;;;;;;4913988;29;20067;-93
2022/05/04 10:43:31;;;;;;;9.57;3.58;;;12.40;95.30;;;;;;4925646;29;20059;-92
2022/05/04 10:46:04;;;;;;;11.23;3.75;;;12.40;96.10;;;;;;4900368;29;20044;-90
2022/05/04 10:48:30;;;;;;;8.95;3.50;;;12.40;96.20;;;;;;4896697;29;20397;-91
2022/05/04 10:50:55;;;;;;;9.95;3.50;;;12.50;96.40;;;;;;4914264;29;20099;-93
2022/05/04 10:53:24;;;;;;;9.40;3.55;;;12.50;96.50;;;;;;4896492;29;20111;-93
2022/05/04 10:56:00;;;;;;;11.32;3.83;;;12.70;96.90;;;;;;4914163;29;20044;-93
2022/05/04 10:58:35;;;;;;;12.35;3.35;;;12.70;96.20;;;;;;4895900;29;20079;-90
2022/05/04 11:01:26;;;;;;;6.95;3.30;;;12.80;95.80;;;;;;4896487;29;20044;-90
2022/05/04 11:04:17;;;;;;;9.15;3.28;;;12.80;94.90;;;;;;4896355;29;20048;-90
2022/05/04 11:06:44;;;;;;;10.32;3.47;;;12.70;94.00;;;;;;4932495;29;20079;-93
2022/05/04 11:09:24;;;;;;;9.10;3.28;;;12.70;95.00;;;;;;4904994;29;20046;-89
2022/05/04 11:11:52;;;;;;;9.38;3.20;;;12.80;94.40;;;;;;4927332;29;20051;-91
2022/05/04 11:14:23;;;;;;;10.93;3.33;;;12.80;94.40;;;;;;4905112;29;20108;-92
2022/05/04 11:16:50;;;;;;;7.50;2.97;;;12.80;94.30;;;;;;4913352;29;20063;-94
2022/05/04 11:19:16;;;;;;;8.60;3.00;;;12.90;95.00;;;;;;4895357;29;20059;-92
2022/05/04 11:21:43;;;;;;;7.63;3.33;;;13.00;94.60;;;;;;4893732;29;20402;-91
2022/05/04 11:24:11;;;;;;;8.20;3.50;;;13.10;95.10;;;;;;4910870;29;20370;-90
2022/05/04 11:26:39;;;;;;;10.13;3.42;;;13.30;95.50;;;;;;4911410;29;20068;-92
2022/05/04 11:29:21;;;;;;;9.57;3.28;;;13.30;94.40;;;;;;4910320;29;20048;-92
2022/05/04 11:31:55;;;;;;;8.68;3.30;;;13.30;94.30;;;;;;4895765;29;20060;-93
2022/05/04 11:34:28;;;;;;;9.30;3.67;;;13.40;93.70;;;;;;4896197;29;20051;-95
2022/05/04 11:36:56;;;;;;;10.23;3.70;;;13.40;93.60;;;;;;4909878;29;20107;-93
2022/05/04 11:39:23;;;;;;;10.35;3.50;;;13.30;93.10;;;;;;4932394;29;20044;-91
2022/05/04 11:41:51;;;;;;;10.05;3.42;;;13.20;93.20;;;;;;4907062;29;20123;-93
2022/05/04 11:44:24;;;;;;;10.82;3.22;;;13.20;94.00;;;;;;4912098;29;20056;-93
2022/05/04 11:46:51;;;;;;;9.20;3.75;;;13.30;93.60;;;;;;4896927;29;20044;-93
2022/05/04 11:49:19;;;;;;;8.70;3.47;;;13.40;93.00;;;;;;4894853;29;20119;-92
2022/05/04 11:51:45;;;;;;;10.27;3.20;;;13.30;93.10;;;;;;4896320;29;20064;-93
2022/05/04 11:54:10;;;;;;;10.57;3.60;;;13.20;93.00;;;;;;4912201;29;20348;-92
2022/05/04 11:56:36;;;;;;;8.68;3.20;;;13.40;93.00;;;;;;4917538;29;20052;-93
2022/05/04 11:59:03;;;;;;;8.85;3.20;;;13.50;92.40;;;;;;4899815;29;20040;-94
2022/05/04 12:01:29;;;;;;;8.82;3.70;;;13.50;92.20;;;;;;4919934;29;20048;-91
2022/05/04 12:03:55;;;;;;;9.75;3.38;;;13.60;91.90;;;;;;4912224;29;20046;-92
2022/05/04 12:06:22;;;;;;;9.00;3.40;;;13.80;91.80;;;;;;4911086;29;20532;-93
2022/05/04 12:08:48;;;;;;;9.57;3.40;;;13.80;91.80;;;;;;4916996;29;20098;-92
2022/05/04 12:11:16;;;;;;;8.18;3.20;;;13.90;91.50;;;;;;4915637;29;20067;-94
2022/05/04 12:13:42;;;;;;;7.20;2.97;;;13.90;91.40;;;;;;4899317;29;20044;-96
2022/05/04 12:16:10;;;;;;;7.72;3.17;;;13.90;90.70;;;;;;4900676;29;20056;-92
2022/05/04 12:18:37;;;;;;;8.48;2.90;;;13.80;90.10;;;;;;4899194;29;20055;-91
2022/05/04 12:21:17;;;;;;;11.00;3.70;;;13.70;90.20;;;;;;4913931;29;20052;-92
2022/05/04 12:23:45;;;;;;;11.18;2.92;;;13.70;89.70;;;;;;4896144;29;20055;-92
2022/05/04 12:26:12;;;;;;;8.40;3.13;;;13.70;90.00;;;;;;4897023;29;20501;-94
2022/05/04 12:28:39;;;;;;;11.18;3.70;;;13.70;90.50;;;;;;4915732;29;20101;-91
2022/05/04 12:33:50;;;;;;;8.07;3.40;;;13.70;90.50;;;;;;4915807;29;20074;-92
2022/05/04 12:36:18;;;;;;;9.80;3.40;;;13.70;90.80;;;;;;4913639;29;20044;-93
2022/05/04 12:38:47;;;;;;;11.13;3.70;;;13.80;90.50;;;;;;4915783;29;20056;-93
2022/05/04 12:41:18;;;;;;;9.88;3.42;;;13.90;89.30;;;;;;4896189;29;20044;-92
2022/05/04 12:43:45;;;;;;;9.20;3.40;;;13.90;90.40;;;;;;4910335;29;20063;-94
2022/05/04 12:46:13;;;;;;;7.82;3.30;;;14.00;90.10;;;;;;4915978;29;20052;-92
2022/05/04 12:48:41;;;;;;;7.95;3.53;;;14.00;90.00;;;;;;4897370;29;20051;-92
2022/05/04 12:51:07;;;;;;;8.65;3.65;;;14.00;90.10;;;;;;4897579;29;20059;-93
2022/05/04 12:53:33;;;;;;;9.73;3.67;;;14.10;88.90;;;;;;4897721;29;20075;-93
2022/05/04 12:58:44;;;;;;;10.40;3.78;;;14.00;89.40;;;;;;4915587;29;20115;-92
2022/05/04 13:01:10;;;;;;;9.38;3.63;;;13.90;89.10;;;;;;4915922;29;20059;-95
2022/05/04 13:03:36;;;;;;;9.57;3.67;;;13.90;89.10;;;;;;4915185;29;20063;-91
2022/05/04 13:06:02;;;;;;;10.02;3.85;;;13.90;89.10;;;;;;4913937;29;20064;-90
2022/05/04 13:08:28;;;;;;;9.15;3.70;;;13.90;89.70;;;;;;4914527;29;20416;-92
2022/05/04 13:10:54;;;;;;;8.35;4.10;;;14.00;90.00;;;;;;4911550;29;20139;-91
2022/05/04 13:13:22;;;;;;;9.98;4.13;;;14.10;89.70;;;;;;4881686;29;20135;-90
2022/05/04 13:15:51;;;;;;;11.80;4.13;;;14.10;88.30;;;;;;4893570;29;20067;-90
2022/05/04 13:18:17;;;;;;;10.80;4.13;;;14.10;89.10;;;;;;4912209;29;20534;-92
2022/05/04 13:20:43;;;;;;;8.52;3.83;;;14.10;90.30;;;;;;4913151;29;20118;-93
2022/05/04 13:23:09;;;;;;;8.98;3.50;;;14.20;90.00;;;;;;4913402;29;20398;-93
2022/05/04 13:25:35;;;;;;;8.95;4.15;;;14.20;90.10;;;;;;4910730;29;20047;-90
2022/05/04 13:28:01;;;;;;;10.48;3.92;;;14.30;88.40;;;;;;4894847;29;20084;-90